Time;durP1;ratioP1;P1;durP2;ratioP2;P2;SDS_P1;SDS_P2;PMS_P1;PMS_P2;Temp;Humidity;BMP_temperature;BMP_pressure;BME280_temperature;BME280_humidity;BME280_pressure;Samples;Min_cycle;Max_cycle;Signal;HPM_P1;HPM_P2
2024/03/20 00:01:35;;;;;;;3.63;2.47;;;6.40;99.90;;;;;;493999;241;27980;-73
2024/03/20 00:03:36;;;;;;;3.17;2.87;;;6.40;99.90;;;;;;493910;241;29352;-71
2024/03/20 00:05:38;;;;;;;4.83;3.17;;;6.30;99.90;;;;;;493909;241;27895;-73
2024/03/20 00:07:39;;;;;;;2.97;2.73;;;6.30;99.90;;;;;;493964;241;27971;-73
2024/03/20 00:09:40;;;;;;;3.30;3.00;;;6.30;99.90;;;;;;493901;241;27683;-73
2024/03/20 00:11:41;;;;;;;4.72;3.05;;;6.40;99.90;;;;;;493959;241;27981;-74
2024/03/20 00:13:44;;;;;;;4.20;2.87;;;6.30;99.90;;;;;;493922;237;27461;-73
2024/03/20 00:15:44;;;;;;;2.83;2.62;;;6.30;99.90;;;;;;493824;241;27509;-73
2024/03/20 00:17:45;;;;;;;5.83;3.40;;;6.30;99.90;;;;;;493989;241;27501;-74
2024/03/20 00:19:47;;;;;;;3.85;3.30;;;6.30;99.90;;;;;;493938;241;28002;-73
2024/03/20 00:21:48;;;;;;;3.53;3.22;;;6.30;99.90;;;;;;493947;241;27579;-73
2024/03/20 00:23:49;;;;;;;4.68;2.50;;;6.20;99.90;;;;;;493915;241;27527;-74
2024/03/20 00:25:50;;;;;;;3.20;2.90;;;6.20;99.90;;;;;;494009;241;27474;-71
2024/03/20 00:27:52;;;;;;;4.30;3.20;;;6.20;99.90;;;;;;493944;241;27526;-74
2024/03/20 00:29:53;;;;;;;3.17;2.83;;;6.20;99.90;;;;;;493892;241;28808;-74
2024/03/20 00:31:57;;;;;;;3.65;3.20;;;6.20;99.90;;;;;;493926;241;28511;-72
2024/03/20 00:33:55;;;;;;;3.25;2.95;;;6.30;99.90;;;;;;493747;241;28144;-75
2024/03/20 00:35:57;;;;;;;3.60;3.30;;;6.30;99.90;;;;;;493986;241;27469;-73
2024/03/20 00:37:58;;;;;;;2.53;2.30;;;6.20;99.90;;;;;;493950;241;27529;-72
2024/03/20 00:39:59;;;;;;;3.83;3.20;;;6.20;99.90;;;;;;493897;241;27591;-73
2024/03/20 00:42:00;;;;;;;3.27;3.03;;;6.20;99.90;;;;;;493956;241;27514;-74
2024/03/20 00:44:02;;;;;;;4.70;3.10;;;6.20;99.90;;;;;;493949;241;28878;-75
2024/03/20 00:46:03;;;;;;;3.35;3.05;;;6.20;99.90;;;;;;493973;241;27910;-72
2024/03/20 00:48:04;;;;;;;4.00;2.90;;;6.20;99.90;;;;;;493902;241;27992;-71
2024/03/20 00:50:06;;;;;;;2.95;2.72;;;6.10;99.90;;;;;;493918;241;27581;-71
2024/03/20 00:52:07;;;;;;;3.00;2.80;;;6.10;99.90;;;;;;493977;241;27488;-74
2024/03/20 00:54:08;;;;;;;6.60;3.55;;;6.10;99.90;;;;;;493953;241;28677;-74
2024/03/20 00:56:09;;;;;;;4.90;3.10;;;6.10;99.90;;;;;;493943;241;27539;-73
2024/03/20 00:58:11;;;;;;;2.70;2.50;;;6.10;99.90;;;;;;493775;241;27548;-72
2024/03/20 01:00:12;;;;;;;5.37;3.33;;;6.10;99.90;;;;;;493974;241;28061;-72
2024/03/20 01:02:13;;;;;;;5.50;3.50;;;6.10;99.90;;;;;;493918;241;28039;-72
2024/03/20 01:04:15;;;;;;;3.12;2.83;;;6.10;99.90;;;;;;493890;241;27513;-71
2024/03/20 01:06:15;;;;;;;6.80;3.20;;;6.10;99.90;;;;;;493878;241;27607;-72
2024/03/20 01:08:18;;;;;;;4.97;3.22;;;6.10;99.90;;;;;;493932;241;28072;-73
2024/03/20 01:10:19;;;;;;;4.62;3.03;;;6.10;99.90;;;;;;493922;241;27641;-74
2024/03/20 01:12:19;;;;;;;3.20;2.90;;;6.00;99.90;;;;;;493925;241;27513;-71
2024/03/20 01:14:22;;;;;;;3.93;3.27;;;6.00;99.90;;;;;;493930;241;28022;-73
2024/03/20 01:16:22;;;;;;;3.00;2.78;;;6.00;99.90;;;;;;493829;241;29943;-72
2024/03/20 01:18:23;;;;;;;4.60;2.87;;;6.00;99.90;;;;;;493948;241;27617;-71
2024/03/20 01:20:24;;;;;;;3.25;2.95;;;6.00;99.90;;;;;;493968;241;27652;-72
2024/03/20 01:22:26;;;;;;;4.22;3.15;;;6.00;99.90;;;;;;493964;241;27565;-74
2024/03/20 01:24:27;;;;;;;5.12;3.25;;;6.00;99.90;;;;;;493919;241;27510;-74
2024/03/20 01:26:28;;;;;;;3.45;2.55;;;6.00;99.90;;;;;;494011;241;27860;-72
2024/03/20 01:28:29;;;;;;;3.03;2.83;;;5.90;99.90;;;;;;493907;241;27540;-71
2024/03/20 01:30:31;;;;;;;3.67;2.90;;;6.00;99.90;;;;;;493890;241;28013;-71
2024/03/20 01:32:32;;;;;;;3.67;3.35;;;6.00;99.90;;;;;;493940;241;29259;-72
2024/03/20 01:34:33;;;;;;;3.28;3.00;;;5.90;99.90;;;;;;493942;241;27522;-74
2024/03/20 01:36:34;;;;;;;5.22;3.70;;;5.90;99.90;;;;;;493989;241;27505;-75
2024/03/20 01:38:36;;;;;;;4.35;3.40;;;5.90;99.90;;;;;;493919;241;27980;-73
2024/03/20 01:40:37;;;;;;;5.40;3.62;;;5.90;99.90;;;;;;493939;237;28013;-73
2024/03/20 01:42:38;;;;;;;4.95;3.85;;;5.90;99.90;;;;;;493944;241;27631;-73
2024/03/20 01:44:39;;;;;;;3.87;3.25;;;5.80;99.90;;;;;;493954;241;27513;-73
2024/03/20 01:46:41;;;;;;;4.70;3.45;;;5.80;99.90;;;;;;493955;241;27525;-73
2024/03/20 01:48:42;;;;;;;4.75;3.70;;;5.80;99.90;;;;;;493898;241;27487;-72
2024/03/20 01:50:43;;;;;;;4.90;3.67;;;5.80;99.90;;;;;;493916;241;27649;-73
2024/03/20 01:52:44;;;;;;;4.12;3.40;;;5.70;99.90;;;;;;493971;241;29333;-72
2024/03/20 01:54:46;;;;;;;3.85;3.40;;;5.70;99.90;;;;;;493928;241;28071;-73
2024/03/20 01:56:47;;;;;;;6.65;3.50;;;5.80;99.90;;;;;;493873;241;27630;-73
2024/03/20 01:58:48;;;;;;;4.18;3.55;;;5.70;99.90;;;;;;493830;241;27545;-73
2024/03/20 02:00:49;;;;;;;6.10;3.75;;;5.80;99.90;;;;;;493926;241;27529;-73
2024/03/20 02:02:51;;;;;;;3.70;3.40;;;5.70;99.90;;;;;;493732;237;27613;-73
2024/03/20 02:04:52;;;;;;;6.15;3.33;;;5.70;99.90;;;;;;493891;237;28801;-73
2024/03/20 02:06:53;;;;;;;4.00;3.60;;;5.80;99.90;;;;;;493898;237;28097;-71
2024/03/20 02:08:54;;;;;;;4.25;3.35;;;5.80;99.90;;;;;;493834;241;29992;-73
2024/03/20 02:10:56;;;;;;;4.35;3.00;;;5.80;99.90;;;;;;493961;241;27915;-73
2024/03/20 02:12:57;;;;;;;5.10;3.50;;;5.80;99.90;;;;;;493916;241;27533;-73
2024/03/20 02:14:58;;;;;;;6.60;3.58;;;5.70;99.90;;;;;;493867;241;27468;-73
2024/03/20 02:17:00;;;;;;;3.67;3.37;;;5.70;99.90;;;;;;493929;241;27897;-71
2024/03/20 02:19:01;;;;;;;4.18;3.70;;;5.70;99.90;;;;;;493957;241;27659;-74
2024/03/20 02:21:02;;;;;;;4.35;3.65;;;5.70;99.90;;;;;;493967;241;27462;-73
2024/03/20 02:23:03;;;;;;;4.28;3.22;;;5.70;99.90;;;;;;493971;241;27501;-74
2024/03/20 02:25:05;;;;;;;3.80;3.37;;;5.60;99.90;;;;;;493972;241;27514;-73
2024/03/20 02:27:07;;;;;;;4.28;3.22;;;5.60;99.90;;;;;;493985;241;27549;-71
2024/03/20 02:29:07;;;;;;;4.40;3.60;;;5.60;99.90;;;;;;493913;241;27505;-74
2024/03/20 02:31:08;;;;;;;5.80;4.00;;;5.70;99.90;;;;;;493966;241;27903;-73
2024/03/20 02:33:10;;;;;;;8.15;4.37;;;5.70;99.90;;;;;;493953;237;27993;-73
2024/03/20 02:35:11;;;;;;;5.57;3.85;;;5.70;99.90;;;;;;494025;241;27551;-75
2024/03/20 02:37:12;;;;;;;7.22;4.65;;;5.70;99.90;;;;;;494013;241;27484;-73
2024/03/20 02:39:14;;;;;;;5.70;4.20;;;5.70;99.90;;;;;;493976;241;27538;-73
2024/03/20 02:41:15;;;;;;;6.37;3.63;;;5.70;99.90;;;;;;493971;241;27461;-73
2024/03/20 02:43:16;;;;;;;4.75;3.87;;;5.70;99.90;;;;;;493983;241;28075;-72
2024/03/20 02:45:17;;;;;;;6.60;4.27;;;5.70;99.90;;;;;;494009;241;27971;-74
2024/03/20 02:47:19;;;;;;;8.30;4.20;;;5.60;99.90;;;;;;494004;241;28219;-73
2024/03/20 02:49:20;;;;;;;5.72;3.83;;;5.60;99.90;;;;;;493946;238;27518;-71
2024/03/20 02:51:21;;;;;;;5.35;4.35;;;5.60;99.90;;;;;;493979;241;27532;-73
2024/03/20 02:53:22;;;;;;;6.12;4.50;;;5.60;99.90;;;;;;494022;241;27474;-73
2024/03/20 02:55:24;;;;;;;4.32;3.87;;;5.60;99.90;;;;;;493974;241;27609;-72
2024/03/20 02:57:25;;;;;;;5.95;3.95;;;5.60;99.90;;;;;;493955;241;27533;-70
2024/03/20 02:59:26;;;;;;;6.07;4.30;;;5.60;99.90;;;;;;493912;241;27973;-72
2024/03/20 03:01:27;;;;;;;4.32;3.92;;;5.60;99.90;;;;;;493996;241;28092;-71
2024/03/20 03:03:29;;;;;;;6.90;4.60;;;5.60;99.90;;;;;;493989;241;27550;-71
2024/03/20 03:05:30;;;;;;;8.90;5.07;;;5.60;99.90;;;;;;493984;237;27631;-72
2024/03/20 03:07:31;;;;;;;5.28;4.75;;;5.50;99.90;;;;;;493910;237;27477;-73
2024/03/20 03:09:32;;;;;;;5.60;3.90;;;5.50;99.90;;;;;;493949;241;27588;-73
2024/03/20 03:11:34;;;;;;;5.85;4.10;;;5.50;99.90;;;;;;493967;241;27541;-72
2024/03/20 03:13:35;;;;;;;6.22;4.10;;;5.40;99.90;;;;;;493930;241;28203;-74
2024/03/20 03:15:36;;;;;;;7.57;4.60;;;5.40;99.90;;;;;;493945;241;28087;-71
2024/03/20 03:17:37;;;;;;;5.45;4.47;;;5.50;99.90;;;;;;493926;241;27486;-73
2024/03/20 03:19:39;;;;;;;4.40;3.67;;;5.40;99.90;;;;;;493966;241;27469;-74
2024/03/20 03:21:41;;;;;;;5.95;4.20;;;5.40;99.90;;;;;;493972;241;27542;-74
2024/03/20 03:23:41;;;;;;;5.50;3.90;;;5.40;99.90;;;;;;493941;241;27587;-73
2024/03/20 03:25:42;;;;;;;7.32;4.30;;;5.30;99.90;;;;;;493922;241;27584;-73
2024/03/20 03:27:44;;;;;;;4.45;4.05;;;5.40;99.90;;;;;;493980;241;28067;-74
2024/03/20 03:29:45;;;;;;;6.82;4.20;;;5.40;99.90;;;;;;493937;241;27937;-73
2024/03/20 03:31:47;;;;;;;5.40;4.10;;;5.40;99.90;;;;;;493836;241;27582;-74
2024/03/20 03:33:47;;;;;;;6.05;3.90;;;5.40;99.90;;;;;;493839;241;27467;-73
2024/03/20 03:35:49;;;;;;;7.22;4.40;;;5.40;99.90;;;;;;493963;241;27513;-73
2024/03/20 03:37:50;;;;;;;6.43;4.28;;;5.40;99.90;;;;;;493986;241;27537;-74
2024/03/20 03:39:51;;;;;;;8.80;4.85;;;5.40;99.90;;;;;;493907;241;27506;-73
2024/03/20 03:41:52;;;;;;;4.50;4.03;;;5.40;99.90;;;;;;493932;241;28037;-73
2024/03/20 03:43:54;;;;;;;5.37;3.92;;;5.40;99.90;;;;;;493931;241;27929;-73
2024/03/20 03:45:55;;;;;;;4.50;3.65;;;5.40;99.90;;;;;;493959;241;27467;-73
2024/03/20 03:47:57;;;;;;;4.72;3.78;;;5.40;99.90;;;;;;493957;238;27599;-73
2024/03/20 03:49:58;;;;;;;5.80;4.00;;;5.40;99.90;;;;;;493871;241;27501;-73
2024/03/20 03:51:59;;;;;;;6.93;3.45;;;5.30;99.90;;;;;;493934;237;27633;-73
2024/03/20 03:54:00;;;;;;;4.35;3.45;;;5.30;99.90;;;;;;493976;241;27533;-74
2024/03/20 03:56:01;;;;;;;3.85;3.53;;;5.30;99.90;;;;;;493942;241;27481;-73
2024/03/20 03:58:03;;;;;;;4.00;3.25;;;5.30;99.90;;;;;;493927;241;27607;-74
2024/03/20 04:00:06;;;;;;;7.37;3.85;;;5.30;99.90;;;;;;493940;241;27537;-73
2024/03/20 04:02:05;;;;;;;5.05;3.00;;;5.30;99.90;;;;;;493864;241;27919;-73
2024/03/20 04:04:06;;;;;;;7.47;3.65;;;5.20;99.90;;;;;;493964;241;28024;-74
2024/03/20 04:06:08;;;;;;;6.53;3.80;;;5.20;99.90;;;;;;493948;241;27465;-73
2024/03/20 04:08:09;;;;;;;4.62;3.80;;;5.20;99.90;;;;;;493850;241;27596;-73
2024/03/20 04:10:10;;;;;;;3.83;3.42;;;5.20;99.90;;;;;;493889;241;27546;-74
2024/03/20 04:12:11;;;;;;;4.22;3.78;;;5.20;99.90;;;;;;493967;237;27488;-73
2024/03/20 04:14:15;;;;;;;6.30;3.40;;;5.20;99.90;;;;;;493945;241;27615;-74
2024/03/20 04:16:14;;;;;;;6.15;3.80;;;5.20;99.90;;;;;;493732;241;28010;-73
2024/03/20 04:18:17;;;;;;;4.53;4.05;;;5.20;99.90;;;;;;493906;241;28099;-73
2024/03/20 04:20:16;;;;;;;8.25;5.10;;;5.20;99.90;;;;;;493897;241;27521;-73
2024/03/20 04:22:18;;;;;;;6.05;4.25;;;5.20;99.90;;;;;;493956;241;27575;-73
2024/03/20 04:24:19;;;;;;;5.60;4.12;;;5.20;99.90;;;;;;493918;241;27507;-73
2024/03/20 04:26:20;;;;;;;6.05;4.07;;;5.20;99.90;;;;;;493910;241;27509;-73
2024/03/20 04:28:21;;;;;;;4.15;3.75;;;5.20;99.90;;;;;;493918;241;27492;-73
2024/03/20 04:30:23;;;;;;;5.15;4.25;;;5.10;99.90;;;;;;493976;241;27600;-72
2024/03/20 04:32:25;;;;;;;5.20;4.20;;;5.10;99.90;;;;;;493959;241;27998;-73
2024/03/20 04:34:25;;;;;;;4.65;3.53;;;5.10;99.90;;;;;;493874;241;27999;-73
2024/03/20 04:36:27;;;;;;;3.92;3.55;;;5.10;99.90;;;;;;493966;241;27569;-73
2024/03/20 04:38:29;;;;;;;4.50;4.07;;;5.00;99.90;;;;;;493905;241;27460;-73
2024/03/20 04:40:29;;;;;;;5.50;3.78;;;5.00;99.90;;;;;;493872;241;27542;-73
2024/03/20 04:42:30;;;;;;;5.95;4.07;;;5.00;99.90;;;;;;493922;237;27505;-73
2024/03/20 04:44:32;;;;;;;5.30;4.32;;;5.00;99.90;;;;;;493923;237;27506;-72
2024/03/20 04:46:33;;;;;;;4.80;4.20;;;5.00;99.90;;;;;;493976;241;28122;-74
2024/03/20 04:48:34;;;;;;;4.47;4.03;;;4.90;99.90;;;;;;493904;241;27921;-73
2024/03/20 04:50:35;;;;;;;4.10;3.70;;;4.90;99.90;;;;;;493936;241;27518;-73
2024/03/20 04:52:37;;;;;;;4.80;4.20;;;4.90;99.90;;;;;;493930;241;27461;-72
2024/03/20 04:54:38;;;;;;;5.03;4.50;;;4.90;99.90;;;;;;493925;241;27510;-73
2024/03/20 04:56:39;;;;;;;7.50;4.43;;;4.90;99.90;;;;;;493963;241;27524;-74
2024/03/20 04:58:40;;;;;;;10.07;4.82;;;4.90;99.90;;;;;;493912;241;27506;-73
2024/03/20 05:00:42;;;;;;;6.85;5.25;;;4.90;99.90;;;;;;493930;241;27505;-73
2024/03/20 05:02:43;;;;;;;9.23;5.45;;;4.90;99.90;;;;;;493916;241;28825;-73
2024/03/20 05:04:44;;;;;;;10.07;5.32;;;4.90;99.90;;;;;;493982;241;27942;-73
2024/03/20 05:06:45;;;;;;;11.93;6.37;;;4.90;99.90;;;;;;493949;241;27621;-73
2024/03/20 05:08:47;;;;;;;9.93;6.00;;;4.90;99.90;;;;;;493865;241;27458;-73
2024/03/20 05:10:48;;;;;;;8.23;5.82;;;4.90;99.90;;;;;;493910;241;27552;-73
2024/03/20 05:12:49;;;;;;;10.65;6.20;;;4.90;99.90;;;;;;493976;241;27893;-74
2024/03/20 05:14:50;;;;;;;9.25;6.32;;;4.90;99.90;;;;;;493941;241;27594;-73
2024/03/20 05:16:52;;;;;;;9.43;6.25;;;4.90;99.90;;;;;;493951;237;27985;-74
2024/03/20 05:18:53;;;;;;;9.60;5.43;;;4.90;99.90;;;;;;493871;241;28029;-72
2024/03/20 05:20:54;;;;;;;9.18;6.35;;;4.90;99.90;;;;;;493950;241;27482;-73
2024/03/20 05:22:55;;;;;;;8.93;5.68;;;4.90;99.90;;;;;;493950;241;27509;-74
2024/03/20 05:24:57;;;;;;;8.07;5.85;;;4.80;99.90;;;;;;493942;241;27572;-73
2024/03/20 05:26:58;;;;;;;9.68;5.62;;;4.80;99.90;;;;;;493937;241;27599;-73
2024/03/20 05:28:59;;;;;;;10.23;6.10;;;4.80;99.90;;;;;;493887;241;27538;-73
2024/03/20 05:31:00;;;;;;;8.52;5.75;;;4.80;99.90;;;;;;493919;237;27945;-73
2024/03/20 05:33:03;;;;;;;10.45;5.60;;;4.80;99.90;;;;;;493914;241;27984;-73
2024/03/20 05:35:03;;;;;;;8.80;5.90;;;4.80;99.90;;;;;;493843;237;27580;-73
2024/03/20 05:37:04;;;;;;;8.43;5.75;;;4.70;99.90;;;;;;493864;241;27485;-73
2024/03/20 05:39:06;;;;;;;8.77;5.30;;;4.70;99.90;;;;;;493936;241;27619;-75
2024/03/20 05:41:07;;;;;;;7.30;5.50;;;4.70;99.90;;;;;;493936;237;27458;-73
2024/03/20 05:43:08;;;;;;;9.30;5.87;;;4.70;99.90;;;;;;493888;241;27524;-73
2024/03/20 05:45:09;;;;;;;10.23;5.90;;;4.70;99.90;;;;;;493904;241;27461;-73
2024/03/20 05:47:11;;;;;;;6.65;5.60;;;4.70;99.90;;;;;;493940;241;27510;-73
2024/03/20 05:49:12;;;;;;;9.48;6.90;;;4.70;99.90;;;;;;493904;241;27497;-74
2024/03/20 05:51:13;;;;;;;12.13;5.95;;;4.80;99.90;;;;;;493918;241;28022;-73
2024/03/20 05:53:14;;;;;;;10.23;5.65;;;4.70;99.90;;;;;;493894;241;27989;-73
2024/03/20 05:55:16;;;;;;;12.45;6.30;;;4.70;99.90;;;;;;493960;241;27528;-73
2024/03/20 05:57:17;;;;;;;9.15;6.82;;;4.70;99.90;;;;;;493973;241;27548;-73
2024/03/20 05:59:18;;;;;;;11.23;7.12;;;4.70;99.90;;;;;;493899;241;27526;-74
2024/03/20 06:01:20;;;;;;;7.50;5.07;;;4.70;99.90;;;;;;493934;241;27477;-73
2024/03/20 06:03:21;;;;;;;9.77;6.07;;;4.70;99.90;;;;;;493914;241;27538;-73
2024/03/20 06:05:22;;;;;;;8.32;6.20;;;4.80;99.90;;;;;;493982;241;27996;-75
2024/03/20 06:07:23;;;;;;;8.98;5.80;;;4.90;99.90;;;;;;493989;241;28010;-73
2024/03/20 06:09:24;;;;;;;8.18;5.87;;;5.00;99.90;;;;;;493954;241;27988;-74
2024/03/20 06:11:26;;;;;;;7.85;5.87;;;5.00;99.90;;;;;;493958;241;27481;-73
2024/03/20 06:13:27;;;;;;;8.65;6.05;;;5.10;99.90;;;;;;493952;241;27489;-73
2024/03/20 06:15:28;;;;;;;9.23;5.57;;;5.10;99.90;;;;;;493999;241;27593;-73
2024/03/20 06:17:29;;;;;;;11.45;7.00;;;5.20;99.90;;;;;;494008;241;27482;-73
2024/03/20 06:19:31;;;;;;;9.07;6.55;;;5.30;99.90;;;;;;493951;241;27524;-73
2024/03/20 06:21:32;;;;;;;12.02;7.82;;;5.30;99.90;;;;;;493970;241;28121;-73
2024/03/20 06:23:33;;;;;;;11.70;7.35;;;5.40;99.90;;;;;;493992;241;28021;-74
2024/03/20 06:25:34;;;;;;;14.23;7.45;;;5.50;99.90;;;;;;494011;241;27507;-73
2024/03/20 06:27:36;;;;;;;12.55;7.85;;;5.60;99.90;;;;;;493988;241;27465;-72
2024/03/20 06:29:37;;;;;;;12.47;7.90;;;5.70;99.90;;;;;;493903;241;27561;-74
2024/03/20 06:31:39;;;;;;;11.98;7.57;;;5.80;99.90;;;;;;494015;241;29261;-74
2024/03/20 06:33:40;;;;;;;12.40;7.70;;;5.80;99.90;;;;;;493936;241;27524;-73
2024/03/20 06:35:41;;;;;;;12.37;7.97;;;5.90;99.90;;;;;;494001;241;27515;-73
2024/03/20 06:37:42;;;;;;;14.45;8.57;;;5.90;99.90;;;;;;493956;241;29236;-73
2024/03/20 06:39:43;;;;;;;15.02;8.60;;;6.00;99.90;;;;;;494006;241;27973;-73
2024/03/20 06:41:45;;;;;;;14.20;7.80;;;6.00;99.90;;;;;;494009;241;27588;-74
2024/03/20 06:43:50;;;;;;;14.23;8.65;;;6.00;99.90;;;;;;493994;241;28806;-73
2024/03/20 06:45:50;;;;;;;10.88;7.35;;;6.00;99.90;;;;;;493588;241;27580;-73
2024/03/20 06:47:51;;;;;;;11.27;7.63;;;6.10;99.90;;;;;;493983;241;27517;-73
2024/03/20 06:49:53;;;;;;;12.05;6.80;;;6.30;99.90;;;;;;493961;241;28781;-73
2024/03/20 06:51:54;;;;;;;17.67;8.10;;;6.30;99.90;;;;;;493975;241;27956;-73
2024/03/20 06:53:55;;;;;;;12.10;7.23;;;6.30;99.90;;;;;;494000;241;27960;-74
2024/03/20 06:55:59;;;;;;;14.50;7.67;;;6.40;99.90;;;;;;494007;241;28869;-72
2024/03/20 06:57:57;;;;;;;11.77;6.73;;;6.40;99.90;;;;;;493775;241;28385;-73
2024/03/20 06:59:59;;;;;;;9.47;6.30;;;6.60;99.90;;;;;;493962;241;28027;-75
2024/03/20 07:02:01;;;;;;;11.67;7.43;;;6.70;99.90;;;;;;494004;241;28894;-73
2024/03/20 07:04:01;;;;;;;13.90;6.43;;;6.80;99.90;;;;;;493862;238;28004;-73
2024/03/20 07:06:02;;;;;;;10.50;5.83;;;6.90;99.90;;;;;;493960;241;28103;-73
2024/03/20 07:08:04;;;;;;;11.97;6.50;;;6.90;99.90;;;;;;493938;241;28095;-73
2024/03/20 07:10:05;;;;;;;10.80;6.20;;;7.00;99.90;;;;;;494025;241;28086;-74
2024/03/20 07:12:06;;;;;;;11.13;6.93;;;7.10;99.90;;;;;;493995;241;28468;-73
2024/03/20 07:14:07;;;;;;;10.10;6.57;;;7.20;99.90;;;;;;493964;241;28449;-73
2024/03/20 07:16:09;;;;;;;10.20;6.70;;;7.20;99.90;;;;;;493974;241;30148;-74
2024/03/20 07:18:10;;;;;;;11.13;6.70;;;7.30;99.90;;;;;;493968;241;28038;-74
2024/03/20 07:20:11;;;;;;;11.70;6.70;;;7.30;99.90;;;;;;493982;241;27866;-73
2024/03/20 07:22:14;;;;;;;8.80;6.10;;;7.40;99.90;;;;;;493964;237;27938;-73
2024/03/20 07:24:14;;;;;;;9.70;6.37;;;7.50;99.90;;;;;;493773;241;28022;-73
2024/03/20 07:26:15;;;;;;;7.47;5.43;;;7.50;99.90;;;;;;493981;241;27848;-73
2024/03/20 07:28:16;;;;;;;8.87;6.10;;;7.60;99.90;;;;;;493951;241;28025;-73
2024/03/20 07:30:17;;;;;;;10.33;6.43;;;7.60;99.90;;;;;;493903;241;27976;-74
2024/03/20 07:32:19;;;;;;;7.20;5.77;;;7.70;99.90;;;;;;493953;241;27583;-73
2024/03/20 07:34:20;;;;;;;6.60;5.40;;;7.80;99.90;;;;;;493908;241;27999;-73
2024/03/20 07:36:21;;;;;;;5.83;5.07;;;7.80;99.90;;;;;;493983;241;28221;-74
2024/03/20 07:38:22;;;;;;;7.60;6.30;;;7.90;99.90;;;;;;493909;237;28534;-73
2024/03/20 07:40:25;;;;;;;7.13;5.60;;;7.90;99.90;;;;;;493966;241;28102;-74
2024/03/20 07:42:25;;;;;;;6.57;5.80;;;7.90;99.90;;;;;;493817;241;28504;-73
2024/03/20 07:44:26;;;;;;;10.67;6.70;;;8.00;99.90;;;;;;493957;241;28511;-74
2024/03/20 07:46:27;;;;;;;11.17;6.00;;;8.10;99.90;;;;;;493995;241;28384;-74
2024/03/20 07:48:29;;;;;;;12.17;7.30;;;8.10;99.90;;;;;;493902;241;28286;-73
2024/03/20 07:50:30;;;;;;;6.90;5.17;;;8.20;99.90;;;;;;493943;241;27641;-74
2024/03/20 07:52:31;;;;;;;9.13;6.57;;;8.30;99.90;;;;;;493946;241;28099;-72
2024/03/20 07:54:32;;;;;;;8.00;6.03;;;8.30;99.90;;;;;;493890;241;28000;-74
2024/03/20 07:56:34;;;;;;;13.00;6.90;;;8.40;99.90;;;;;;493965;241;27988;-74
2024/03/20 07:58:35;;;;;;;11.13;7.10;;;8.50;99.90;;;;;;493894;241;27900;-74
2024/03/20 08:00:36;;;;;;;10.27;5.83;;;8.50;99.90;;;;;;493917;241;27971;-73
2024/03/20 08:02:37;;;;;;;7.90;6.17;;;8.60;99.90;;;;;;493948;241;27981;-74
2024/03/20 08:04:39;;;;;;;8.50;6.27;;;8.70;99.90;;;;;;493982;241;27707;-73
2024/03/20 08:06:40;;;;;;;8.60;6.40;;;8.80;99.90;;;;;;493976;241;27721;-74
2024/03/20 08:08:42;;;;;;;10.47;5.43;;;8.90;99.90;;;;;;493888;241;27617;-73
2024/03/20 08:10:42;;;;;;;9.07;6.93;;;9.00;99.90;;;;;;493864;241;27897;-74
2024/03/20 08:12:44;;;;;;;7.73;6.93;;;9.20;99.90;;;;;;494012;241;28517;-75
2024/03/20 08:14:45;;;;;;;14.10;8.40;;;9.30;99.90;;;;;;493950;241;28404;-73
2024/03/20 08:16:47;;;;;;;15.33;8.20;;;9.40;99.90;;;;;;493945;241;28322;-74
2024/03/20 08:18:48;;;;;;;12.23;8.17;;;9.60;99.90;;;;;;493807;241;28179;-73
2024/03/20 08:20:49;;;;;;;8.00;7.10;;;9.80;99.90;;;;;;493963;241;28108;-73
2024/03/20 08:22:50;;;;;;;11.53;8.03;;;10.00;99.90;;;;;;493991;241;28067;-75
2024/03/20 08:24:51;;;;;;;10.33;6.60;;;10.10;99.90;;;;;;493961;241;28084;-73
2024/03/20 08:26:52;;;;;;;10.20;6.93;;;10.30;99.90;;;;;;493946;237;28089;-74
2024/03/20 08:28:54;;;;;;;8.63;6.60;;;10.50;99.90;;;;;;493898;241;28078;-75
2024/03/20 08:30:55;;;;;;;10.67;7.00;;;10.80;99.90;;;;;;493986;241;27831;-73
2024/03/20 08:32:56;;;;;;;10.50;6.60;;;11.30;99.90;;;;;;493963;241;27953;-74
2024/03/20 08:34:58;;;;;;;9.80;6.63;;;11.40;99.90;;;;;;493952;237;28519;-73
2024/03/20 08:36:59;;;;;;;10.53;6.63;;;11.70;99.90;;;;;;493930;241;28639;-74
2024/03/20 08:39:00;;;;;;;9.83;6.03;;;11.80;99.90;;;;;;493929;241;28756;-74
2024/03/20 08:41:01;;;;;;;9.47;5.93;;;11.90;99.90;;;;;;493970;237;28657;-73
2024/03/20 08:43:02;;;;;;;11.47;6.53;;;12.10;99.90;;;;;;493957;241;28262;-73
2024/03/20 08:45:04;;;;;;;5.60;4.40;;;12.20;99.90;;;;;;493782;240;28254;-73
2024/03/20 08:47:05;;;;;;;7.37;4.73;;;12.40;99.90;;;;;;493908;241;27998;-73
2024/03/20 08:49:06;;;;;;;8.00;5.73;;;12.40;99.90;;;;;;493889;237;28252;-75
2024/03/20 08:51:07;;;;;;;9.50;5.27;;;12.30;99.90;;;;;;493964;237;28254;-72
2024/03/20 08:53:09;;;;;;;5.93;5.20;;;12.40;99.90;;;;;;493953;241;28324;-73
2024/03/20 08:55:10;;;;;;;8.03;5.67;;;12.50;99.90;;;;;;493896;241;28274;-73
2024/03/20 08:57:11;;;;;;;6.53;4.30;;;12.60;99.90;;;;;;493913;241;28432;-73
2024/03/20 08:59:12;;;;;;;9.13;5.17;;;12.70;99.90;;;;;;493943;241;29353;-74
2024/03/20 09:01:14;;;;;;;8.10;4.97;;;12.70;99.90;;;;;;493951;241;28697;-73
2024/03/20 09:03:16;;;;;;;8.67;5.70;;;;;;;;;;493896;241;29152;-74
2024/03/20 09:05:17;;;;;;;12.80;4.97;;;12.80;99.90;;;;;;493950;241;27251;-73
2024/03/20 09:07:19;;;;;;;7.30;5.57;;;12.80;99.90;;;;;;493942;241;28377;-75
2024/03/20 09:09:20;;;;;;;7.23;5.37;;;12.80;99.90;;;;;;493856;241;28830;-73
2024/03/20 09:11:21;;;;;;;7.57;5.80;;;12.90;99.90;;;;;;493921;241;28797;-73
2024/03/20 09:13:22;;;;;;;7.30;5.13;;;12.90;99.90;;;;;;493976;237;28738;-75
2024/03/20 09:15:24;;;;;;;8.37;5.07;;;13.00;99.90;;;;;;493979;241;28769;-73
2024/03/20 09:17:25;;;;;;;9.50;5.43;;;13.00;99.90;;;;;;493946;237;28208;-73
2024/03/20 09:19:26;;;;;;;7.03;4.97;;;13.00;99.90;;;;;;493921;241;28272;-73
2024/03/20 09:21:31;;;;;;;4.37;3.90;;;;;;;;;;493929;237;28215;-75
2024/03/20 09:23:31;;;;;;;6.47;4.50;;;;;;;;;;493781;241;27078;-74
2024/03/20 09:25:33;;;;;;;7.33;4.20;;;13.00;99.90;;;;;;493951;237;26600;-73
2024/03/20 09:27:33;;;;;;;7.33;4.73;;;13.00;99.90;;;;;;493901;241;28380;-73
2024/03/20 09:29:35;;;;;;;8.27;4.30;;;13.00;99.90;;;;;;493942;241;28371;-74
2024/03/20 09:31:36;;;;;;;7.07;4.00;;;13.10;99.90;;;;;;493903;241;28316;-73
2024/03/20 09:33:37;;;;;;;8.30;4.60;;;13.10;99.90;;;;;;493930;241;28291;-74
2024/03/20 09:35:39;;;;;;;7.33;4.63;;;13.10;99.90;;;;;;493918;241;28770;-73
2024/03/20 09:37:40;;;;;;;6.67;4.03;;;13.30;99.90;;;;;;493965;241;28859;-73
2024/03/20 09:39:42;;;;;;;5.50;4.57;;;;;;;;;;493946;241;28774;-73
2024/03/20 09:41:43;;;;;;;4.10;3.43;;;13.20;99.90;;;;;;493942;241;26676;-73
2024/03/20 09:43:45;;;;;;;5.40;4.03;;;13.20;99.90;;;;;;493888;241;28820;-73
2024/03/20 09:45:46;;;;;;;5.30;3.63;;;13.20;99.90;;;;;;493946;241;28253;-74
2024/03/20 09:47:47;;;;;;;5.27;4.20;;;13.30;99.90;;;;;;493929;241;28203;-74
2024/03/20 09:49:48;;;;;;;5.60;3.83;;;13.40;99.90;;;;;;493888;241;28610;-74
2024/03/20 09:51:50;;;;;;;6.17;4.17;;;13.40;99.90;;;;;;493870;241;28852;-73
2024/03/20 09:53:51;;;;;;;4.43;3.30;;;13.60;99.90;;;;;;493879;241;29404;-74
2024/03/20 09:55:52;;;;;;;3.80;3.40;;;13.70;99.90;;;;;;493969;241;28221;-73
2024/03/20 09:57:53;;;;;;;2.80;2.60;;;13.70;99.90;;;;;;493926;241;28428;-74
2024/03/20 09:59:58;;;;;;;6.00;3.43;;;;;;;;;;493878;241;28164;-73
2024/03/20 10:01:57;;;;;;;5.80;3.80;;;13.70;99.90;;;;;;493829;241;26615;-75
2024/03/20 10:03:58;;;;;;;5.63;3.07;;;14.00;99.90;;;;;;493957;237;28636;-73
2024/03/20 10:06:00;;;;;;;5.90;3.20;;;14.10;99.90;;;;;;493937;241;28921;-74
2024/03/20 10:08:01;;;;;;;8.50;2.83;;;14.10;99.90;;;;;;493847;241;28745;-73
2024/03/20 10:10:04;;;;;;;4.10;3.13;;;14.30;99.90;;;;;;493918;241;28413;-73
2024/03/20 10:12:04;;;;;;;5.77;3.00;;;14.30;99.90;;;;;;493759;241;28482;-73
2024/03/20 10:14:05;;;;;;;9.30;3.40;;;14.40;99.90;;;;;;493901;241;28259;-72
2024/03/20 10:16:07;;;;;;;7.53;3.17;;;14.30;99.90;;;;;;493922;241;28427;-74
2024/03/20 10:18:07;;;;;;;4.67;3.20;;;14.50;99.90;;;;;;493864;241;28437;-73
2024/03/20 10:20:08;;;;;;;3.97;2.80;;;14.50;99.90;;;;;;493971;241;28397;-73
2024/03/20 10:22:10;;;;;;;4.87;2.87;;;14.60;99.90;;;;;;493951;241;28443;-74
2024/03/20 10:24:11;;;;;;;3.90;2.67;;;14.80;99.90;;;;;;493893;241;28509;-72
2024/03/20 10:26:15;;;;;;;2.93;2.53;;;14.80;99.90;;;;;;493874;241;29386;-73
2024/03/20 10:28:16;;;;;;;5.07;2.97;;;15.00;99.90;;;;;;493884;241;28552;-73
2024/03/20 10:30:18;;;;;;;3.60;3.07;;;15.10;99.90;;;;;;493898;237;29397;-74
2024/03/20 10:32:20;;;;;;;3.00;2.50;;;15.00;99.90;;;;;;493893;241;29262;-73
2024/03/20 10:34:20;;;;;;;3.93;2.80;;;15.10;99.90;;;;;;493804;241;29351;-74
2024/03/20 10:36:23;;;;;;;4.07;2.87;;;15.00;99.90;;;;;;493956;241;29742;-73
2024/03/20 10:38:23;;;;;;;4.63;2.57;;;15.00;99.90;;;;;;493749;241;29942;-73